createdAt,value
2019-03-23T00:00:08.868Z,37.67
2019-03-23T00:02:38.718Z,38.50
2019-03-23T00:05:08.200Z,37.03
2019-03-23T00:07:36.885Z,36.77
2019-03-23T00:10:10.675Z,37.13
2019-03-23T00:12:39.725Z,35.83
2019-03-23T00:15:10.517Z,36.53
2019-03-23T00:17:39.788Z,36.97
2019-03-23T00:20:09.240Z,36.93
2019-03-23T00:22:37.904Z,34.73
2019-03-23T00:25:07.132Z,33.93
2019-03-23T00:27:35.756Z,34.43
2019-03-23T00:30:06.684Z,36.27
2019-03-23T00:32:35.265Z,36.93
2019-03-23T00:35:05.181Z,35.87
2019-03-23T00:37:33.823Z,36.50
2019-03-23T00:40:02.847Z,36.17
2019-03-23T00:42:31.444Z,36.77
2019-03-23T00:45:00.027Z,37.37
2019-03-23T00:47:28.735Z,37.73
2019-03-23T00:49:57.325Z,37.10
2019-03-23T00:52:25.926Z,37.47
2019-03-23T00:54:54.512Z,38.20
2019-03-23T00:57:23.510Z,37.30
2019-03-23T00:59:52.608Z,36.53
2019-03-23T01:02:21.240Z,36.93
2019-03-23T01:04:49.852Z,37.40
2019-03-23T01:07:18.457Z,38.50
2019-03-23T01:09:47.060Z,38.10
2019-03-23T01:12:15.651Z,36.03
2019-03-23T01:14:44.248Z,37.17
2019-03-23T01:17:13.153Z,38.40
2019-03-23T01:19:41.750Z,37.87
2019-03-23T01:22:10.780Z,39.23
2019-03-23T01:24:39.350Z,38.03
2019-03-23T01:27:08.039Z,38.90
2019-03-23T01:29:36.630Z,38.00
2019-03-23T01:32:05.709Z,38.77
2019-03-23T01:34:34.277Z,36.47
2019-03-23T01:37:03.261Z,38.70
2019-03-23T01:39:31.828Z,38.57
2019-03-23T01:42:00.426Z,37.80
2019-03-23T01:44:29.306Z,39.07
2019-03-23T01:46:57.935Z,37.13
2019-03-23T01:49:26.526Z,38.07
2019-03-23T01:51:55.127Z,38.63
2019-03-23T01:54:23.716Z,38.33
2019-03-23T01:56:52.389Z,36.50
2019-03-23T01:59:20.935Z,37.70
2019-03-23T02:01:49.966Z,38.13
2019-03-23T02:04:18.563Z,39.07
2019-03-23T02:06:47.456Z,37.93
2019-03-23T02:09:16.267Z,39.67
2019-03-23T02:11:44.850Z,39.10
2019-03-23T02:14:13.488Z,41.37
2019-03-23T02:16:42.075Z,41.60
2019-03-23T02:19:10.685Z,40.07
2019-03-23T02:21:39.350Z,41.23
2019-03-23T02:24:08.031Z,39.83
2019-03-23T02:26:36.612Z,40.47
2019-03-23T02:29:05.227Z,39.63
2019-03-23T02:31:33.890Z,39.90
2019-03-23T02:34:03.012Z,38.97
2019-03-23T02:36:31.597Z,41.10
2019-03-23T02:39:00.193Z,39.73
2019-03-23T02:41:29.125Z,38.53
2019-03-23T02:43:57.754Z,40.60
2019-03-23T02:46:26.335Z,39.60
2019-03-23T02:48:54.960Z,41.93
2019-03-23T02:51:23.559Z,40.10
2019-03-23T02:53:52.176Z,41.13
2019-03-23T02:56:20.766Z,40.97
2019-03-23T02:58:49.472Z,40.97
2019-03-23T03:01:18.082Z,38.77
2019-03-23T03:03:46.701Z,38.70
2019-03-23T03:06:15.324Z,38.87
2019-03-23T03:08:43.929Z,38.93
2019-03-23T03:11:12.526Z,39.10
2019-03-23T03:13:41.142Z,38.70
2019-03-23T03:16:09.720Z,38.43
2019-03-23T03:18:38.371Z,38.33
2019-03-23T03:21:07.129Z,39.27
2019-03-23T03:23:35.736Z,38.53
2019-03-23T03:26:04.542Z,37.97
2019-03-23T03:28:33.332Z,38.37
2019-03-23T03:31:01.916Z,38.90
2019-03-23T03:33:30.540Z,38.07
2019-03-23T03:35:59.140Z,37.60
2019-03-23T03:38:27.731Z,37.43
2019-03-23T03:40:56.337Z,37.83
2019-03-23T03:43:24.924Z,36.73
2019-03-23T03:45:53.538Z,35.93
2019-03-23T03:48:22.166Z,35.87
2019-03-23T03:50:51.136Z,36.63
2019-03-23T03:53:19.714Z,37.67
2019-03-23T03:55:48.301Z,36.97
2019-03-23T03:58:16.891Z,36.93
2019-03-23T04:00:45.493Z,36.33
2019-03-23T04:03:14.062Z,35.60
2019-03-23T04:05:42.705Z,34.90
2019-03-23T04:08:12.191Z,35.87
2019-03-23T04:10:40.977Z,37.17
2019-03-23T04:13:09.941Z,35.97
2019-03-23T04:15:53.958Z,35.70
2019-03-23T04:18:22.574Z,34.10
2019-03-23T04:20:51.190Z,33.20
2019-03-23T04:23:19.821Z,34.43
2019-03-23T04:25:48.403Z,37.10
2019-03-23T04:28:17.297Z,35.37
2019-03-23T04:30:46.236Z,36.03
2019-03-23T04:33:14.842Z,34.87
2019-03-23T04:35:43.875Z,35.20
2019-03-23T04:38:22.284Z,35.33
2019-03-23T04:40:43.122Z,33.93
2019-03-23T04:43:11.710Z,34.43
2019-03-23T04:45:40.314Z,33.47
2019-03-23T04:48:08.903Z,34.40
2019-03-23T04:50:37.515Z,34.43
2019-03-23T04:53:06.142Z,33.97
2019-03-23T04:55:34.765Z,34.27
2019-03-23T04:58:03.404Z,33.10
2019-03-23T05:00:32.012Z,35.03
2019-03-23T05:03:00.605Z,33.83
2019-03-23T05:05:29.240Z,34.13
2019-03-23T05:07:57.837Z,34.77
2019-03-23T05:10:26.464Z,34.43
2019-03-23T05:12:55.050Z,33.83
2019-03-23T05:15:24.051Z,33.97
2019-03-23T05:17:52.624Z,35.23
2019-03-23T05:20:29.148Z,34.77
2019-03-23T05:22:57.870Z,34.03
2019-03-23T05:25:28.533Z,32.47
2019-03-23T05:27:58.100Z,33.57
2019-03-23T05:30:26.951Z,32.53
2019-03-23T05:32:55.588Z,33.13
2019-03-23T05:35:24.277Z,34.37
2019-03-23T05:37:52.912Z,32.80
2019-03-23T05:40:21.550Z,33.30
2019-03-23T05:42:50.140Z,33.70
2019-03-23T05:45:18.718Z,32.90
2019-03-23T05:47:48.970Z,31.80
2019-03-23T05:50:18.081Z,31.43
2019-03-23T05:52:47.891Z,31.90
2019-03-23T05:55:16.472Z,31.50
2019-03-23T05:57:45.095Z,31.50
2019-03-23T06:00:15.396Z,32.37
2019-03-23T06:02:44.035Z,31.00
2019-03-23T06:05:12.694Z,32.03
2019-03-23T06:07:41.314Z,29.47
2019-03-23T06:10:10.474Z,30.87
2019-03-23T06:12:39.661Z,30.53
2019-03-23T06:15:08.576Z,29.17
2019-03-23T06:17:37.343Z,29.63
2019-03-23T06:20:09.692Z,29.90
2019-03-23T06:22:38.295Z,29.67
2019-03-23T06:25:07.344Z,29.07
2019-03-23T06:27:35.920Z,28.90
2019-03-23T06:30:06.963Z,29.13
2019-03-23T06:32:35.651Z,27.97
2019-03-23T06:35:04.495Z,26.97
2019-03-23T06:37:33.098Z,28.23
2019-03-23T06:40:01.736Z,27.87
2019-03-23T06:42:30.403Z,28.13
2019-03-23T06:44:59.438Z,28.53
2019-03-23T06:47:28.094Z,28.60
2019-03-23T06:49:57.032Z,28.87
2019-03-23T06:52:25.643Z,28.30
2019-03-23T06:54:54.234Z,29.73
2019-03-23T06:57:22.883Z,27.73
2019-03-23T06:59:51.458Z,28.23
2019-03-23T07:02:20.074Z,29.83
2019-03-23T07:04:49.137Z,29.63
2019-03-23T07:07:17.759Z,28.27
2019-03-23T07:09:46.689Z,29.07
2019-03-23T07:12:15.326Z,27.53
2019-03-23T07:14:43.902Z,29.57
2019-03-23T07:17:12.536Z,28.80
2019-03-23T07:19:41.166Z,27.43
2019-03-23T07:22:09.771Z,26.83
2019-03-23T07:24:42.722Z,28.27
2019-03-23T07:27:11.441Z,28.97
2019-03-23T07:29:40.371Z,28.60
2019-03-23T07:32:09.268Z,27.90
2019-03-23T07:34:37.921Z,28.80
2019-03-23T07:37:06.602Z,29.53
2019-03-23T07:39:35.731Z,29.33
2019-03-23T07:42:04.462Z,28.57
2019-03-23T07:44:33.122Z,28.03
2019-03-23T07:47:01.702Z,29.83
2019-03-23T07:49:30.320Z,28.63
2019-03-23T07:51:58.902Z,29.73
2019-03-23T07:54:27.538Z,29.33
2019-03-23T07:56:56.115Z,31.87
2019-03-23T07:59:24.726Z,28.27
2019-03-23T08:01:53.311Z,30.07
2019-03-23T08:04:21.922Z,29.47
2019-03-23T08:06:50.509Z,29.67
2019-03-23T08:09:20.625Z,30.13
2019-03-23T08:11:49.384Z,28.77
2019-03-23T08:14:18.005Z,29.50
2019-03-23T08:16:46.599Z,29.30
2019-03-23T08:19:15.262Z,28.97
2019-03-23T08:21:43.805Z,31.13
2019-03-23T08:24:12.815Z,30.13
2019-03-23T08:26:41.469Z,30.57
2019-03-23T08:29:10.070Z,30.20
2019-03-23T08:31:39.191Z,32.33
2019-03-23T08:34:07.888Z,30.73
2019-03-23T08:36:36.783Z,30.60
2019-03-23T08:39:07.338Z,29.97
2019-03-23T08:41:36.491Z,31.80
2019-03-23T08:44:05.434Z,31.23
2019-03-23T08:46:34.082Z,30.93
2019-03-23T08:49:02.714Z,32.93
2019-03-23T08:51:33.255Z,31.40
2019-03-23T08:54:01.822Z,32.67
2019-03-23T08:56:30.878Z,30.40
2019-03-23T08:58:59.488Z,29.47
2019-03-23T09:01:28.862Z,30.10
2019-03-23T09:03:57.540Z,29.83
2019-03-23T09:06:27.657Z,30.50
2019-03-23T09:08:59.127Z,30.20
2019-03-23T09:11:32.472Z,29.93
2019-03-23T09:14:01.455Z,30.90
2019-03-23T09:16:30.493Z,27.80
2019-03-23T09:19:00.176Z,30.77
2019-03-23T09:21:28.762Z,29.60
2019-03-23T09:23:57.530Z,30.17
2019-03-23T09:26:26.130Z,30.37
2019-03-23T09:28:55.036Z,30.50
2019-03-23T09:31:23.775Z,29.97
2019-03-23T09:33:52.382Z,28.90
2019-03-23T09:36:23.059Z,29.20
2019-03-23T09:38:51.271Z,29.93
2019-03-23T09:41:19.875Z,31.57
2019-03-23T09:43:48.487Z,29.80
2019-03-23T09:46:17.096Z,30.23
2019-03-23T09:48:45.670Z,30.87
2019-03-23T09:51:14.281Z,30.17
2019-03-23T09:53:42.870Z,32.70
2019-03-23T09:56:11.508Z,30.60
2019-03-23T09:58:40.102Z,29.37
2019-03-23T10:01:08.733Z,28.03
2019-03-23T10:03:38.884Z,28.92
2019-03-23T10:06:07.490Z,30.30
2019-03-23T10:08:36.090Z,30.93
2019-03-23T10:11:04.721Z,30.03
2019-03-23T10:13:33.655Z,28.60
2019-03-23T10:16:02.759Z,30.93
2019-03-23T10:18:31.361Z,29.00
2019-03-23T10:20:59.971Z,30.03
2019-03-23T10:23:29.111Z,33.00
2019-03-23T10:25:57.742Z,32.07
2019-03-23T10:28:26.396Z,30.63
2019-03-23T10:30:55.123Z,31.97
2019-03-23T10:33:23.701Z,30.75
2019-03-23T10:35:52.343Z,32.17
2019-03-23T10:38:20.932Z,32.37
2019-03-23T10:40:50.121Z,32.23
2019-03-23T10:43:19.054Z,31.20
2019-03-23T10:45:47.735Z,33.28
2019-03-23T10:48:16.404Z,32.13
2019-03-23T10:50:45.017Z,33.57
2019-03-23T10:53:22.753Z,34.43
2019-03-23T10:55:43.927Z,33.38
2019-03-23T10:58:14.042Z,33.70
2019-03-23T11:00:42.676Z,34.97
2019-03-23T11:03:11.595Z,38.73
2019-03-23T11:05:40.258Z,37.45
2019-03-23T11:08:08.994Z,41.18
2019-03-23T11:10:41.940Z,37.67
2019-03-23T11:13:11.403Z,39.37
2019-03-23T11:15:40.077Z,38.10
2019-03-23T11:18:08.895Z,38.60
2019-03-23T11:20:37.832Z,37.13
2019-03-23T11:23:06.837Z,37.28
2019-03-23T11:25:37.049Z,35.52
2019-03-23T11:28:05.656Z,34.08
2019-03-23T11:30:34.340Z,34.50
2019-03-23T11:33:02.981Z,35.35
2019-03-23T11:35:31.574Z,32.65
2019-03-23T11:38:02.546Z,33.60
2019-03-23T11:40:31.304Z,35.48
2019-03-23T11:42:59.917Z,32.27
2019-03-23T11:45:28.515Z,33.77
2019-03-23T11:47:57.119Z,33.27
2019-03-23T11:50:26.094Z,33.53
2019-03-23T11:52:54.684Z,34.80
2019-03-23T11:55:23.577Z,35.23
2019-03-23T11:57:52.155Z,34.67
2019-03-23T12:00:20.879Z,33.87
2019-03-23T12:02:49.495Z,35.17
2019-03-23T12:05:18.070Z,34.87
2019-03-23T12:07:47.071Z,34.13
2019-03-23T12:10:15.724Z,34.00
2019-03-23T12:12:44.410Z,34.73
2019-03-23T12:15:14.003Z,32.77
2019-03-23T12:17:43.173Z,34.37
2019-03-23T12:20:13.453Z,34.93
2019-03-23T12:22:42.076Z,33.53
2019-03-23T12:25:10.831Z,34.03
2019-03-23T12:27:39.479Z,33.17
2019-03-23T12:30:11.101Z,33.97
2019-03-23T12:32:39.726Z,33.27
2019-03-23T12:35:11.012Z,33.13
2019-03-23T12:37:39.737Z,31.43
2019-03-23T12:40:10.254Z,31.50
2019-03-23T12:42:39.140Z,31.20
2019-03-23T12:45:09.057Z,30.70
2019-03-23T12:47:38.046Z,28.63
2019-03-23T12:50:09.740Z,29.13
2019-03-23T12:52:38.632Z,29.57
2019-03-23T12:55:07.472Z,27.50
2019-03-23T12:57:36.112Z,28.07
2019-03-23T13:00:13.777Z,27.20
2019-03-23T13:02:42.368Z,28.13
2019-03-23T13:05:11.538Z,26.77
2019-03-23T13:07:40.141Z,25.73
2019-03-23T13:10:11.957Z,26.53
2019-03-23T13:12:40.662Z,28.03
2019-03-23T13:15:12.202Z,27.43
2019-03-23T13:17:40.843Z,28.00
2019-03-23T13:20:10.987Z,27.13
2019-03-23T13:22:39.577Z,27.07
2019-03-23T13:25:09.636Z,26.47
2019-03-23T13:27:38.512Z,25.83
2019-03-23T13:30:13.183Z,24.93
2019-03-23T13:32:42.191Z,24.60
2019-03-23T13:35:10.948Z,25.13
2019-03-23T13:37:39.547Z,25.50
2019-03-23T13:40:10.937Z,23.37
2019-03-23T13:42:39.520Z,25.00
2019-03-23T13:45:09.867Z,26.07
2019-03-23T13:47:39.394Z,24.00
2019-03-23T13:50:10.743Z,24.70
2019-03-23T13:52:39.399Z,25.10
2019-03-23T13:55:09.826Z,24.30
2019-03-23T13:57:38.435Z,22.93
2019-03-23T14:00:11.247Z,25.20
2019-03-23T14:02:39.871Z,24.70
2019-03-23T14:05:15.925Z,27.00
2019-03-23T14:07:38.876Z,25.80
2019-03-23T14:10:07.721Z,25.67
2019-03-23T14:12:36.344Z,24.73
2019-03-23T14:15:09.419Z,26.03
2019-03-23T14:17:37.922Z,26.83
2019-03-23T14:20:09.911Z,26.57
2019-03-23T14:22:39.360Z,27.17
2019-03-23T14:25:08.132Z,26.97
2019-03-23T14:27:37.111Z,27.03
2019-03-23T14:30:07.911Z,25.73
2019-03-23T14:32:36.567Z,27.20
2019-03-23T14:35:06.432Z,27.07
2019-03-23T14:37:35.040Z,26.87
2019-03-23T14:40:05.132Z,25.10
2019-03-23T14:42:35.308Z,26.53
2019-03-23T14:45:07.754Z,27.97
2019-03-23T14:47:36.352Z,27.67
2019-03-23T14:50:06.294Z,26.53
2019-03-23T14:52:35.360Z,26.10
2019-03-23T14:55:04.771Z,24.33
2019-03-23T14:57:33.373Z,24.07
2019-03-23T15:00:01.992Z,23.57
2019-03-23T15:02:30.583Z,23.80
2019-03-23T15:04:59.620Z,22.60
2019-03-23T15:07:28.269Z,21.63
2019-03-23T15:09:56.886Z,23.00
2019-03-23T15:12:25.487Z,21.40
2019-03-23T15:14:54.102Z,22.73
2019-03-23T15:17:22.706Z,22.20
2019-03-23T15:19:51.325Z,23.33
2019-03-23T15:22:20.294Z,23.53
2019-03-23T15:24:48.932Z,21.93
2019-03-23T15:27:17.601Z,21.87
2019-03-23T15:29:46.227Z,23.23
2019-03-23T15:32:14.810Z,22.13
2019-03-23T15:34:43.430Z,21.80
2019-03-23T15:37:12.252Z,22.23
2019-03-23T15:39:40.802Z,22.47
2019-03-23T15:42:09.938Z,22.50
2019-03-23T15:44:38.561Z,21.33
2019-03-23T15:47:07.235Z,21.10
2019-03-23T15:49:35.957Z,21.43
2019-03-23T15:52:04.992Z,20.90
2019-03-23T15:54:33.707Z,20.83
2019-03-23T15:57:02.762Z,21.13
2019-03-23T15:59:31.444Z,20.27
2019-03-23T16:02:00.111Z,19.23
2019-03-23T16:04:28.853Z,20.00
2019-03-23T16:06:57.466Z,19.90
2019-03-23T16:09:26.096Z,18.90
2019-03-23T16:11:54.700Z,19.23
2019-03-23T16:14:23.775Z,22.30
2019-03-23T16:16:52.418Z,17.93
2019-03-23T16:19:20.984Z,17.17
2019-03-23T16:21:49.962Z,16.80
2019-03-23T16:24:18.638Z,16.73
2019-03-23T16:26:47.217Z,16.57
2019-03-23T16:29:16.117Z,17.70
2019-03-23T16:31:44.812Z,17.20
2019-03-23T16:34:13.406Z,15.47
2019-03-23T16:36:41.992Z,17.40
2019-03-23T16:39:10.603Z,16.60
2019-03-23T16:41:39.196Z,15.67
2019-03-23T16:44:08.033Z,15.97
2019-03-23T16:46:36.646Z,16.63
2019-03-23T16:49:05.550Z,16.00
2019-03-23T16:51:34.682Z,15.20
2019-03-23T16:54:03.767Z,15.90
2019-03-23T16:56:32.502Z,17.57
2019-03-23T16:59:02.080Z,18.10
2019-03-23T17:01:30.951Z,15.50
2019-03-23T17:03:59.810Z,16.33
2019-03-23T17:06:28.464Z,16.20
2019-03-23T17:08:57.042Z,17.03
2019-03-23T17:11:25.649Z,16.23
2019-03-23T17:13:54.276Z,17.13
2019-03-23T17:16:22.972Z,16.47
2019-03-23T17:18:51.585Z,16.90
2019-03-23T17:21:20.219Z,15.73
2019-03-23T17:23:49.120Z,17.47
2019-03-23T17:26:17.763Z,16.37
2019-03-23T17:28:46.371Z,15.93
2019-03-23T17:31:15.394Z,15.97
2019-03-23T17:33:43.978Z,15.67
2019-03-23T17:36:12.623Z,15.57
2019-03-23T17:38:41.516Z,14.97
2019-03-23T17:41:10.521Z,16.33
2019-03-23T17:43:40.880Z,14.53
2019-03-23T17:46:09.702Z,15.57
2019-03-23T17:48:38.297Z,15.00
2019-03-23T17:51:07.180Z,14.90
2019-03-23T17:53:35.912Z,15.07
2019-03-23T17:56:06.395Z,15.57
2019-03-23T17:58:35.155Z,14.40
2019-03-23T18:01:03.926Z,13.47
2019-03-23T18:03:32.569Z,14.17
2019-03-23T18:06:02.065Z,15.73
2019-03-23T18:08:30.673Z,18.37
2019-03-23T18:11:02.375Z,15.63
2019-03-23T18:13:30.974Z,15.93
2019-03-23T18:15:59.577Z,16.03
2019-03-23T18:18:28.181Z,18.77
2019-03-23T18:20:56.808Z,18.07
2019-03-23T18:23:25.600Z,22.77
2019-03-23T18:25:54.498Z,18.50
2019-03-23T18:28:23.131Z,18.20
2019-03-23T18:30:51.731Z,17.20
2019-03-23T18:33:20.346Z,19.87
2019-03-23T18:35:49.326Z,17.97
2019-03-23T18:38:18.284Z,18.23
2019-03-23T18:40:47.127Z,22.83
2019-03-23T18:43:15.771Z,18.70
2019-03-23T18:45:44.346Z,20.50
2019-03-23T18:48:12.988Z,21.17
2019-03-23T18:50:42.759Z,18.20
2019-03-23T18:53:12.054Z,18.83
2019-03-23T18:55:40.643Z,18.53
2019-03-23T18:58:10.194Z,18.93
2019-03-23T19:00:43.263Z,20.47
2019-03-23T19:03:12.252Z,28.43
2019-03-23T19:05:40.990Z,20.67
2019-03-23T19:08:11.801Z,20.27
2019-03-23T19:10:40.262Z,22.13
2019-03-23T19:13:09.214Z,26.23
2019-03-23T19:15:38.177Z,29.17
2019-03-23T19:18:06.945Z,26.03
2019-03-23T19:20:35.597Z,26.10
2019-03-23T19:23:04.379Z,27.43
2019-03-23T19:25:32.945Z,28.17
2019-03-23T19:28:01.929Z,27.20
2019-03-23T19:30:30.495Z,28.50
2019-03-23T19:32:59.100Z,28.90
2019-03-23T19:35:27.693Z,29.03
2019-03-23T19:37:56.301Z,30.63
2019-03-23T19:40:24.861Z,30.53
2019-03-23T19:42:53.589Z,29.57
2019-03-23T19:45:22.348Z,33.20
2019-03-23T19:47:50.952Z,31.70
2019-03-23T19:50:19.862Z,30.73
2019-03-23T19:52:48.438Z,31.23
2019-03-23T19:55:17.040Z,32.77
2019-03-23T19:57:45.625Z,31.07
2019-03-23T20:00:14.796Z,30.80
2019-03-23T20:02:43.387Z,32.30
2019-03-23T20:05:12.616Z,32.40
2019-03-23T20:07:41.202Z,32.03
2019-03-23T20:10:10.449Z,30.27
2019-03-23T20:12:39.031Z,31.40
2019-03-23T20:15:08.883Z,32.20
2019-03-23T20:17:37.639Z,31.93
2019-03-23T20:20:09.651Z,29.17
2019-03-23T20:22:38.581Z,29.47
2019-03-23T20:25:07.841Z,30.10
2019-03-23T20:27:36.909Z,29.23
2019-03-23T20:30:08.283Z,29.20
2019-03-23T20:32:36.859Z,28.17
2019-03-23T20:35:08.136Z,33.93
2019-03-23T20:37:36.730Z,33.63
2019-03-23T20:40:09.045Z,31.90
2019-03-23T20:42:37.625Z,30.53
2019-03-23T20:45:08.278Z,29.97
2019-03-23T20:47:39.367Z,29.73
2019-03-23T20:50:09.006Z,28.57
2019-03-23T20:52:37.898Z,28.50
2019-03-23T20:55:08.511Z,26.50
2019-03-23T20:57:37.849Z,27.70
2019-03-23T21:00:08.148Z,27.50
2019-03-23T21:02:37.069Z,26.63
2019-03-23T21:05:06.245Z,27.97
2019-03-23T21:07:34.831Z,27.23
2019-03-23T21:10:04.042Z,29.03
2019-03-23T21:12:32.619Z,27.10
2019-03-23T21:15:01.530Z,26.30
2019-03-23T21:17:30.092Z,25.60
2019-03-23T21:19:58.698Z,24.00
2019-03-23T21:22:27.267Z,22.90
2019-03-23T21:24:56.165Z,22.47
2019-03-23T21:27:25.051Z,22.33
2019-03-23T21:29:53.979Z,29.20
2019-03-23T21:32:22.563Z,24.13
2019-03-23T21:34:51.327Z,24.87
2019-03-23T21:37:20.185Z,23.37
2019-03-23T21:39:49.135Z,26.13
2019-03-23T21:42:17.992Z,29.30
2019-03-23T21:44:46.633Z,27.13
2019-03-23T21:47:15.210Z,27.97
2019-03-23T21:49:43.791Z,27.97
2019-03-23T21:52:12.393Z,26.67
2019-03-23T21:54:41.011Z,25.57
2019-03-23T21:57:09.616Z,27.00
2019-03-23T21:59:38.485Z,31.10
2019-03-23T22:02:07.120Z,30.82
2019-03-23T22:04:35.668Z,27.57
2019-03-23T22:07:04.342Z,27.07
2019-03-23T22:09:32.924Z,31.50
2019-03-23T22:12:01.514Z,28.50
2019-03-23T22:14:30.088Z,30.20
2019-03-23T22:16:58.690Z,29.07
2019-03-23T22:19:27.275Z,38.03
2019-03-23T22:21:56.002Z,31.23
2019-03-23T22:24:24.641Z,28.23
2019-03-23T22:26:53.384Z,27.53
2019-03-23T22:29:21.936Z,28.60
2019-03-23T22:31:50.535Z,26.90
2019-03-23T22:34:19.258Z,29.07
2019-03-23T22:36:47.849Z,32.95
2019-03-23T22:39:16.433Z,27.70
2019-03-23T22:41:45.054Z,27.37
2019-03-23T22:44:13.613Z,27.73
2019-03-23T22:46:42.219Z,26.97
2019-03-23T22:49:10.805Z,30.03
2019-03-23T22:51:39.412Z,28.23
2019-03-23T22:54:09.400Z,29.50
2019-03-23T22:56:38.161Z,29.40
2019-03-23T22:59:06.753Z,29.63
2019-03-23T23:01:35.426Z,28.73
2019-03-23T23:04:04.268Z,30.37
2019-03-23T23:06:32.974Z,31.63
2019-03-23T23:09:01.887Z,30.30
2019-03-23T23:11:30.507Z,30.47
2019-03-23T23:13:59.238Z,28.87
2019-03-23T23:16:27.815Z,29.57
2019-03-23T23:18:56.507Z,30.73
2019-03-23T23:21:25.082Z,28.87
2019-03-23T23:23:53.680Z,28.73
2019-03-23T23:26:22.264Z,28.80
2019-03-23T23:28:50.854Z,29.97
2019-03-23T23:31:19.443Z,31.40
2019-03-23T23:33:48.051Z,29.43
2019-03-23T23:36:16.631Z,29.07
2019-03-23T23:38:45.256Z,29.23
2019-03-23T23:41:13.861Z,28.30
2019-03-23T23:43:42.530Z,26.83
2019-03-23T23:46:11.099Z,30.67
2019-03-23T23:48:43.120Z,29.07
2019-03-23T23:51:09.966Z,27.07
2019-03-23T23:53:38.589Z,29.37
2019-03-23T23:56:07.178Z,28.57
2019-03-23T23:58:35.853Z,30.50
